sensor_id;sensor_type;location;lat;lon;timestamp;temperature;humidity
678;DHT22;321;48.814;9.132;2023-04-03T00:01:10;6.30;99.90
678;DHT22;321;48.814;9.132;2023-04-03T00:03:36;6.30;99.90
678;DHT22;321;48.814;9.132;2023-04-03T00:06:03;6.00;99.90
678;DHT22;321;48.814;9.132;2023-04-03T00:08:29;5.60;99.90
678;DHT22;321;48.814;9.132;2023-04-03T00:10:56;5.80;99.90
678;DHT22;321;48.814;9.132;2023-04-03T00:13:22;5.60;99.90
678;DHT22;321;48.814;9.132;2023-04-03T00:15:48;5.90;99.90
678;DHT22;321;48.814;9.132;2023-04-03T00:18:14;6.00;99.90
678;DHT22;321;48.814;9.132;2023-04-03T00:20:40;6.40;99.90
678;DHT22;321;48.814;9.132;2023-04-03T00:23:05;6.50;99.90
678;DHT22;321;48.814;9.132;2023-04-03T00:25:31;6.60;99.90
678;DHT22;321;48.814;9.132;2023-04-03T00:27:57;6.60;99.90
678;DHT22;321;48.814;9.132;2023-04-03T00:30:22;6.70;99.90
678;DHT22;321;48.814;9.132;2023-04-03T00:32:49;6.80;99.90
678;DHT22;321;48.814;9.132;2023-04-03T00:35:15;6.70;99.90
678;DHT22;321;48.814;9.132;2023-04-03T00:37:43;6.80;99.90
678;DHT22;321;48.814;9.132;2023-04-03T00:40:12;6.80;99.90
678;DHT22;321;48.814;9.132;2023-04-03T00:42:39;6.40;99.90
678;DHT22;321;48.814;9.132;2023-04-03T00:47:31;6.40;99.90
678;DHT22;321;48.814;9.132;2023-04-03T00:49:57;6.10;99.90
678;DHT22;321;48.814;9.132;2023-04-03T00:52:28;5.90;99.90
678;DHT22;321;48.814;9.132;2023-04-03T00:54:58;6.00;99.90
678;DHT22;321;48.814;9.132;2023-04-03T00:57:25;6.00;99.90
678;DHT22;321;48.814;9.132;2023-04-03T00:59:54;5.70;99.90
678;DHT22;321;48.814;9.132;2023-04-03T01:02:20;6.00;99.90
678;DHT22;321;48.814;9.132;2023-04-03T01:04:46;5.90;99.90
678;DHT22;321;48.814;9.132;2023-04-03T01:07:16;6.10;99.90
678;DHT22;321;48.814;9.132;2023-04-03T01:09:42;6.20;99.90
678;DHT22;321;48.814;9.132;2023-04-03T01:12:20;6.30;99.90
678;DHT22;321;48.814;9.132;2023-04-03T01:14:50;6.50;99.90
678;DHT22;321;48.814;9.132;2023-04-03T01:17:32;6.50;99.90
678;DHT22;321;48.814;9.132;2023-04-03T01:22:30;6.60;99.90
678;DHT22;321;48.814;9.132;2023-04-03T01:25:01;6.40;99.90
678;DHT22;321;48.814;9.132;2023-04-03T01:27:26;6.40;99.90
678;DHT22;321;48.814;9.132;2023-04-03T01:29:52;6.50;99.90
678;DHT22;321;48.814;9.132;2023-04-03T01:32:18;6.50;99.90
678;DHT22;321;48.814;9.132;2023-04-03T01:34:44;6.60;99.90
678;DHT22;321;48.814;9.132;2023-04-03T01:37:09;6.30;99.90
678;DHT22;321;48.814;9.132;2023-04-03T01:39:35;6.00;99.90
678;DHT22;321;48.814;9.132;2023-04-03T01:42:00;6.30;99.90
678;DHT22;321;48.814;9.132;2023-04-03T01:44:26;6.40;99.90
678;DHT22;321;48.814;9.132;2023-04-03T01:46:51;5.80;99.90
678;DHT22;321;48.814;9.132;2023-04-03T01:49:17;5.70;99.90
678;DHT22;321;48.814;9.132;2023-04-03T01:51:43;5.60;99.90
678;DHT22;321;48.814;9.132;2023-04-03T01:54:08;5.40;99.90
678;DHT22;321;48.814;9.132;2023-04-03T01:56:34;5.80;99.90
678;DHT22;321;48.814;9.132;2023-04-03T01:58:59;6.00;99.90
678;DHT22;321;48.814;9.132;2023-04-03T02:01:25;6.00;99.90
678;DHT22;321;48.814;9.132;2023-04-03T02:03:51;6.10;99.90
678;DHT22;321;48.814;9.132;2023-04-03T02:06:16;6.10;99.90
678;DHT22;321;48.814;9.132;2023-04-03T02:08:42;6.10;99.90
678;DHT22;321;48.814;9.132;2023-04-03T02:11:07;6.30;99.90
678;DHT22;321;48.814;9.132;2023-04-03T02:13:33;6.50;99.90
678;DHT22;321;48.814;9.132;2023-04-03T02:15:58;5.90;99.90
678;DHT22;321;48.814;9.132;2023-04-03T02:18:24;5.80;99.90
678;DHT22;321;48.814;9.132;2023-04-03T02:20:50;5.50;99.90
678;DHT22;321;48.814;9.132;2023-04-03T02:23:15;5.60;99.90
678;DHT22;321;48.814;9.132;2023-04-03T02:25:41;5.10;99.90
678;DHT22;321;48.814;9.132;2023-04-03T02:28:06;5.00;99.90
678;DHT22;321;48.814;9.132;2023-04-03T02:30:32;4.80;99.90
678;DHT22;321;48.814;9.132;2023-04-03T02:32:57;4.60;99.90
678;DHT22;321;48.814;9.132;2023-04-03T02:35:23;4.90;99.90
678;DHT22;321;48.814;9.132;2023-04-03T02:37:48;4.90;99.90
678;DHT22;321;48.814;9.132;2023-04-03T02:40:14;5.20;99.90
678;DHT22;321;48.814;9.132;2023-04-03T02:42:40;5.30;99.90
678;DHT22;321;48.814;9.132;2023-04-03T02:45:06;5.20;99.90
678;DHT22;321;48.814;9.132;2023-04-03T02:47:31;5.30;99.90
678;DHT22;321;48.814;9.132;2023-04-03T02:49:57;5.60;99.90
678;DHT22;321;48.814;9.132;2023-04-03T02:52:22;5.40;99.90
678;DHT22;321;48.814;9.132;2023-04-03T02:54:48;5.30;99.90
678;DHT22;321;48.814;9.132;2023-04-03T02:57:14;5.50;99.90
678;DHT22;321;48.814;9.132;2023-04-03T02:59:39;5.30;99.90
678;DHT22;321;48.814;9.132;2023-04-03T03:02:08;5.00;99.90
678;DHT22;321;48.814;9.132;2023-04-03T03:04:34;5.20;99.90
678;DHT22;321;48.814;9.132;2023-04-03T03:07:00;5.50;99.90
678;DHT22;321;48.814;9.132;2023-04-03T03:09:26;5.70;99.90
678;DHT22;321;48.814;9.132;2023-04-03T03:11:52;5.40;99.90
678;DHT22;321;48.814;9.132;2023-04-03T03:14:17;5.50;99.90
678;DHT22;321;48.814;9.132;2023-04-03T03:16:43;5.50;99.90
678;DHT22;321;48.814;9.132;2023-04-03T03:19:09;5.70;99.90
678;DHT22;321;48.814;9.132;2023-04-03T03:21:34;5.60;99.90
678;DHT22;321;48.814;9.132;2023-04-03T03:24:00;5.80;99.90
678;DHT22;321;48.814;9.132;2023-04-03T03:26:25;5.70;99.90
678;DHT22;321;48.814;9.132;2023-04-03T03:28:51;5.90;99.90
678;DHT22;321;48.814;9.132;2023-04-03T03:31:17;5.80;99.90
678;DHT22;321;48.814;9.132;2023-04-03T03:33:42;6.10;99.90
678;DHT22;321;48.814;9.132;2023-04-03T03:36:08;6.20;99.90
678;DHT22;321;48.814;9.132;2023-04-03T03:38:34;5.60;99.90
678;DHT22;321;48.814;9.132;2023-04-03T03:40:59;5.50;99.90
678;DHT22;321;48.814;9.132;2023-04-03T03:43:25;5.30;99.90
678;DHT22;321;48.814;9.132;2023-04-03T03:45:51;5.60;99.90
678;DHT22;321;48.814;9.132;2023-04-03T03:48:18;5.40;99.90
678;DHT22;321;48.814;9.132;2023-04-03T03:50:44;5.50;99.90
678;DHT22;321;48.814;9.132;2023-04-03T03:53:09;5.50;99.90
678;DHT22;321;48.814;9.132;2023-04-03T03:55:35;5.50;99.90
678;DHT22;321;48.814;9.132;2023-04-03T03:58:00;5.70;99.90
678;DHT22;321;48.814;9.132;2023-04-03T04:00:27;5.90;99.90
678;DHT22;321;48.814;9.132;2023-04-03T04:02:52;5.80;99.90
678;DHT22;321;48.814;9.132;2023-04-03T04:05:18;5.50;99.90
678;DHT22;321;48.814;9.132;2023-04-03T04:07:44;5.50;99.90
678;DHT22;321;48.814;9.132;2023-04-03T04:10:09;5.60;99.90
678;DHT22;321;48.814;9.132;2023-04-03T04:12:35;5.50;99.90
678;DHT22;321;48.814;9.132;2023-04-03T04:15:01;5.30;99.90
678;DHT22;321;48.814;9.132;2023-04-03T04:17:27;5.10;99.90
678;DHT22;321;48.814;9.132;2023-04-03T04:19:52;4.80;99.90
678;DHT22;321;48.814;9.132;2023-04-03T04:22:18;5.00;99.90
678;DHT22;321;48.814;9.132;2023-04-03T04:24:43;5.00;99.90
678;DHT22;321;48.814;9.132;2023-04-03T04:27:09;4.80;99.90
678;DHT22;321;48.814;9.132;2023-04-03T04:29:34;5.00;99.90
678;DHT22;321;48.814;9.132;2023-04-03T04:32:03;4.90;99.90
678;DHT22;321;48.814;9.132;2023-04-03T04:34:28;4.90;99.90
678;DHT22;321;48.814;9.132;2023-04-03T04:36:54;5.10;99.90
678;DHT22;321;48.814;9.132;2023-04-03T04:39:20;4.90;99.90
678;DHT22;321;48.814;9.132;2023-04-03T04:41:46;5.00;99.90
678;DHT22;321;48.814;9.132;2023-04-03T04:44:11;5.10;99.90
678;DHT22;321;48.814;9.132;2023-04-03T04:46:37;5.00;99.90
678;DHT22;321;48.814;9.132;2023-04-03T04:49:02;5.30;99.90
678;DHT22;321;48.814;9.132;2023-04-03T04:51:28;5.60;99.90
678;DHT22;321;48.814;9.132;2023-04-03T04:53:53;5.30;99.90
678;DHT22;321;48.814;9.132;2023-04-03T04:56:19;5.40;99.90
678;DHT22;321;48.814;9.132;2023-04-03T04:58:44;5.00;99.40
678;DHT22;321;48.814;9.132;2023-04-03T05:01:11;5.00;99.90
678;DHT22;321;48.814;9.132;2023-04-03T05:03:36;5.10;99.90
678;DHT22;321;48.814;9.132;2023-04-03T05:06:02;4.90;99.90
678;DHT22;321;48.814;9.132;2023-04-03T05:08:28;4.90;99.90
678;DHT22;321;48.814;9.132;2023-04-03T05:10:54;5.20;99.90
678;DHT22;321;48.814;9.132;2023-04-03T05:13:20;5.30;99.90
678;DHT22;321;48.814;9.132;2023-04-03T05:15:46;5.40;99.90
678;DHT22;321;48.814;9.132;2023-04-03T05:18:12;5.30;99.90
678;DHT22;321;48.814;9.132;2023-04-03T05:20:38;5.70;99.90
678;DHT22;321;48.814;9.132;2023-04-03T05:23:04;5.40;99.40
678;DHT22;321;48.814;9.132;2023-04-03T05:25:30;5.30;99.90
678;DHT22;321;48.814;9.132;2023-04-03T05:27:56;5.60;99.90
678;DHT22;321;48.814;9.132;2023-04-03T05:30:21;5.40;99.90
678;DHT22;321;48.814;9.132;2023-04-03T05:32:47;5.20;99.90
678;DHT22;321;48.814;9.132;2023-04-03T05:35:13;5.50;99.90
678;DHT22;321;48.814;9.132;2023-04-03T05:37:38;5.60;99.90
678;DHT22;321;48.814;9.132;2023-04-03T05:40:06;5.70;99.90
678;DHT22;321;48.814;9.132;2023-04-03T05:42:32;5.30;99.90
678;DHT22;321;48.814;9.132;2023-04-03T05:44:58;5.10;99.90
678;DHT22;321;48.814;9.132;2023-04-03T05:47:23;5.30;99.90
678;DHT22;321;48.814;9.132;2023-04-03T05:49:49;5.20;99.90
678;DHT22;321;48.814;9.132;2023-04-03T05:52:22;5.20;99.90
678;DHT22;321;48.814;9.132;2023-04-03T05:54:48;5.60;99.90
678;DHT22;321;48.814;9.132;2023-04-03T05:57:17;5.70;99.90
678;DHT22;321;48.814;9.132;2023-04-03T05:59:44;5.60;99.90
678;DHT22;321;48.814;9.132;2023-04-03T06:02:15;5.60;99.90
678;DHT22;321;48.814;9.132;2023-04-03T06:04:41;5.70;99.90
678;DHT22;321;48.814;9.132;2023-04-03T06:07:08;5.80;99.90
678;DHT22;321;48.814;9.132;2023-04-03T06:09:35;5.90;99.90
678;DHT22;321;48.814;9.132;2023-04-03T06:12:01;6.10;99.90
678;DHT22;321;48.814;9.132;2023-04-03T06:14:27;6.30;99.90
678;DHT22;321;48.814;9.132;2023-04-03T06:16:53;6.50;99.40
678;DHT22;321;48.814;9.132;2023-04-03T06:19:19;6.80;99.20
678;DHT22;321;48.814;9.132;2023-04-03T06:21:45;6.80;98.60
678;DHT22;321;48.814;9.132;2023-04-03T06:24:15;6.50;98.30
678;DHT22;321;48.814;9.132;2023-04-03T06:26:41;6.30;98.90
678;DHT22;321;48.814;9.132;2023-04-03T06:29:07;5.80;99.20
678;DHT22;321;48.814;9.132;2023-04-03T06:31:33;5.50;99.90
678;DHT22;321;48.814;9.132;2023-04-03T06:33:58;5.70;99.90
678;DHT22;321;48.814;9.132;2023-04-03T06:36:24;6.00;99.90
678;DHT22;321;48.814;9.132;2023-04-03T06:38:50;5.90;99.90
678;DHT22;321;48.814;9.132;2023-04-03T06:41:16;5.90;99.90
678;DHT22;321;48.814;9.132;2023-04-03T06:43:43;5.70;99.90
678;DHT22;321;48.814;9.132;2023-04-03T06:46:20;5.70;99.90
678;DHT22;321;48.814;9.132;2023-04-03T06:48:46;5.60;99.90
678;DHT22;321;48.814;9.132;2023-04-03T06:51:24;5.50;99.90
678;DHT22;321;48.814;9.132;2023-04-03T06:53:51;5.80;99.90
678;DHT22;321;48.814;9.132;2023-04-03T06:56:18;5.50;99.90
678;DHT22;321;48.814;9.132;2023-04-03T06:58:44;5.40;99.90
678;DHT22;321;48.814;9.132;2023-04-03T07:01:11;5.40;99.90
678;DHT22;321;48.814;9.132;2023-04-03T07:03:38;5.50;99.90
678;DHT22;321;48.814;9.132;2023-04-03T07:06:04;5.80;99.90
678;DHT22;321;48.814;9.132;2023-04-03T07:08:30;5.60;99.90
678;DHT22;321;48.814;9.132;2023-04-03T07:10:56;5.90;99.90
678;DHT22;321;48.814;9.132;2023-04-03T07:13:22;6.30;99.90
678;DHT22;321;48.814;9.132;2023-04-03T07:15:47;6.40;99.90
678;DHT22;321;48.814;9.132;2023-04-03T07:18:13;6.50;99.90
678;DHT22;321;48.814;9.132;2023-04-03T07:20:39;6.70;99.90
678;DHT22;321;48.814;9.132;2023-04-03T07:23:05;6.70;99.40
678;DHT22;321;48.814;9.132;2023-04-03T07:25:31;7.00;99.40
678;DHT22;321;48.814;9.132;2023-04-03T07:27:57;6.90;99.70
678;DHT22;321;48.814;9.132;2023-04-03T07:30:23;6.80;99.50
678;DHT22;321;48.814;9.132;2023-04-03T07:32:48;7.00;99.50
678;DHT22;321;48.814;9.132;2023-04-03T07:35:14;7.10;99.10
678;DHT22;321;48.814;9.132;2023-04-03T07:37:39;6.90;99.00
678;DHT22;321;48.814;9.132;2023-04-03T07:40:06;6.40;99.90
678;DHT22;321;48.814;9.132;2023-04-03T07:42:32;6.90;99.90
678;DHT22;321;48.814;9.132;2023-04-03T07:44:57;6.80;99.00
678;DHT22;321;48.814;9.132;2023-04-03T07:47:23;6.80;99.60
678;DHT22;321;48.814;9.132;2023-04-03T07:49:49;6.80;99.20
678;DHT22;321;48.814;9.132;2023-04-03T07:52:14;6.80;99.70
678;DHT22;321;48.814;9.132;2023-04-03T07:54:41;6.40;99.30
678;DHT22;321;48.814;9.132;2023-04-03T07:57:06;6.40;99.90
678;DHT22;321;48.814;9.132;2023-04-03T07:59:32;6.70;99.90
678;DHT22;321;48.814;9.132;2023-04-03T08:01:58;6.60;99.30
678;DHT22;321;48.814;9.132;2023-04-03T08:04:23;6.60;99.90
678;DHT22;321;48.814;9.132;2023-04-03T08:06:50;7.00;99.80
678;DHT22;321;48.814;9.132;2023-04-03T08:09:16;7.30;99.30
678;DHT22;321;48.814;9.132;2023-04-03T08:11:42;6.80;99.10
678;DHT22;321;48.814;9.132;2023-04-03T08:14:08;6.60;99.60
678;DHT22;321;48.814;9.132;2023-04-03T08:16:33;6.90;99.90
678;DHT22;321;48.814;9.132;2023-04-03T08:18:59;7.30;99.90
678;DHT22;321;48.814;9.132;2023-04-03T08:21:24;7.00;99.30
678;DHT22;321;48.814;9.132;2023-04-03T08:23:50;7.20;99.70
678;DHT22;321;48.814;9.132;2023-04-03T08:26:19;7.20;99.30
678;DHT22;321;48.814;9.132;2023-04-03T08:28:46;7.20;99.40
678;DHT22;321;48.814;9.132;2023-04-03T08:31:15;7.40;99.20
678;DHT22;321;48.814;9.132;2023-04-03T08:33:42;7.50;99.00
678;DHT22;321;48.814;9.132;2023-04-03T08:36:19;8.10;98.90
678;DHT22;321;48.814;9.132;2023-04-03T08:38:46;8.80;98.10
678;DHT22;321;48.814;9.132;2023-04-03T08:44:32;9.00;96.70
678;DHT22;321;48.814;9.132;2023-04-03T08:49:33;9.30;96.60
678;DHT22;321;48.814;9.132;2023-04-03T08:52:12;9.60;96.30
678;DHT22;321;48.814;9.132;2023-04-03T08:54:57;9.80;96.10
678;DHT22;321;48.814;9.132;2023-04-03T08:57:40;9.90;94.30
678;DHT22;321;48.814;9.132;2023-04-03T09:02:51;9.10;95.90
678;DHT22;321;48.814;9.132;2023-04-03T09:05:19;9.20;95.30
678;DHT22;321;48.814;9.132;2023-04-03T09:07:49;9.00;95.00
678;DHT22;321;48.814;9.132;2023-04-03T09:10:29;8.90;95.80
678;DHT22;321;48.814;9.132;2023-04-03T09:15:36;8.40;96.20
678;DHT22;321;48.814;9.132;2023-04-03T09:18:20;8.70;95.30
678;DHT22;321;48.814;9.132;2023-04-03T09:21:08;8.60;95.30
678;DHT22;321;48.814;9.132;2023-04-03T09:23:45;8.80;95.70
678;DHT22;321;48.814;9.132;2023-04-03T09:26:16;8.80;95.80
678;DHT22;321;48.814;9.132;2023-04-03T09:28:43;8.20;95.20
678;DHT22;321;48.814;9.132;2023-04-03T09:31:25;8.10;96.10
678;DHT22;321;48.814;9.132;2023-04-03T09:33:56;8.20;96.30
678;DHT22;321;48.814;9.132;2023-04-03T09:36:39;8.10;95.80
678;DHT22;321;48.814;9.132;2023-04-03T09:39:13;8.30;95.50
678;DHT22;321;48.814;9.132;2023-04-03T09:41:40;8.40;94.70
678;DHT22;321;48.814;9.132;2023-04-03T09:44:30;8.50;95.10
678;DHT22;321;48.814;9.132;2023-04-03T09:46:56;8.60;94.60
678;DHT22;321;48.814;9.132;2023-04-03T09:49:22;8.20;94.60
678;DHT22;321;48.814;9.132;2023-04-03T09:51:47;8.30;94.10
678;DHT22;321;48.814;9.132;2023-04-03T09:54:34;8.10;93.90
678;DHT22;321;48.814;9.132;2023-04-03T09:57:11;7.90;95.40
678;DHT22;321;48.814;9.132;2023-04-03T09:59:45;8.10;96.30
678;DHT22;321;48.814;9.132;2023-04-03T10:04:39;7.90;95.60
678;DHT22;321;48.814;9.132;2023-04-03T10:07:32;7.90;96.10
678;DHT22;321;48.814;9.132;2023-04-03T10:12:40;7.90;95.40
678;DHT22;321;48.814;9.132;2023-04-03T10:15:16;8.40;95.40
678;DHT22;321;48.814;9.132;2023-04-03T10:17:57;8.70;94.70
678;DHT22;321;48.814;9.132;2023-04-03T10:20:46;8.80;93.30
678;DHT22;321;48.814;9.132;2023-04-03T10:23:21;8.10;93.70
678;DHT22;321;48.814;9.132;2023-04-03T10:34:05;7.50;96.00
678;DHT22;321;48.814;9.132;2023-04-03T10:36:53;7.50;95.70
678;DHT22;321;48.814;9.132;2023-04-03T10:50:37;7.90;94.90
678;DHT22;321;48.814;9.132;2023-04-03T10:53:21;8.20;94.80
678;DHT22;321;48.814;9.132;2023-04-03T10:58:40;7.80;95.10
678;DHT22;321;48.814;9.132;2023-04-03T11:01:11;8.00;95.00
678;DHT22;321;48.814;9.132;2023-04-03T11:03:49;8.10;94.90
678;DHT22;321;48.814;9.132;2023-04-03T11:06:19;8.40;95.00
678;DHT22;321;48.814;9.132;2023-04-03T11:08:51;8.40;93.00
678;DHT22;321;48.814;9.132;2023-04-03T11:11:25;8.30;92.90
678;DHT22;321;48.814;9.132;2023-04-03T11:13:56;7.90;92.10
678;DHT22;321;48.814;9.132;2023-04-03T11:16:28;8.00;93.20
678;DHT22;321;48.814;9.132;2023-04-03T11:19:05;8.40;92.90
678;DHT22;321;48.814;9.132;2023-04-03T11:21:41;8.50;91.20
678;DHT22;321;48.814;9.132;2023-04-03T11:24:17;8.50;90.80
678;DHT22;321;48.814;9.132;2023-04-03T11:26:46;8.50;91.20
678;DHT22;321;48.814;9.132;2023-04-03T11:29:16;8.40;90.10
678;DHT22;321;48.814;9.132;2023-04-03T11:34:55;7.60;90.80
678;DHT22;321;48.814;9.132;2023-04-03T11:37:45;7.70;91.20
678;DHT22;321;48.814;9.132;2023-04-03T11:42:42;7.60;91.90
678;DHT22;321;48.814;9.132;2023-04-03T11:50:46;7.70;91.90
678;DHT22;321;48.814;9.132;2023-04-03T11:58:24;8.20;91.80
678;DHT22;321;48.814;9.132;2023-04-03T12:05:57;8.20;91.20
678;DHT22;321;48.814;9.132;2023-04-03T12:16:19;8.50;90.70
678;DHT22;321;48.814;9.132;2023-04-03T12:21:18;7.90;87.30
678;DHT22;321;48.814;9.132;2023-04-03T12:26:48;8.60;90.10
678;DHT22;321;48.814;9.132;2023-04-03T12:37:48;8.70;90.20
678;DHT22;321;48.814;9.132;2023-04-03T12:40:33;8.70;88.20
678;DHT22;321;48.814;9.132;2023-04-03T12:43:18;8.80;90.10
678;DHT22;321;48.814;9.132;2023-04-03T12:48:29;8.30;88.20
678;DHT22;321;48.814;9.132;2023-04-03T12:50:56;8.10;88.40
678;DHT22;321;48.814;9.132;2023-04-03T12:53:25;8.30;89.50
678;DHT22;321;48.814;9.132;2023-04-03T12:55:56;8.20;88.20
678;DHT22;321;48.814;9.132;2023-04-03T12:58:27;8.00;88.30
678;DHT22;321;48.814;9.132;2023-04-03T13:01:11;8.00;90.00
678;DHT22;321;48.814;9.132;2023-04-03T13:03:40;8.30;90.30
678;DHT22;321;48.814;9.132;2023-04-03T13:06:17;8.40;89.00
678;DHT22;321;48.814;9.132;2023-04-03T13:08:57;8.60;88.60
678;DHT22;321;48.814;9.132;2023-04-03T13:11:25;8.70;87.30
678;DHT22;321;48.814;9.132;2023-04-03T13:14:17;8.40;87.30
678;DHT22;321;48.814;9.132;2023-04-03T13:17:02;8.50;87.10
678;DHT22;321;48.814;9.132;2023-04-03T13:19:28;8.30;86.20
678;DHT22;321;48.814;9.132;2023-04-03T13:22:25;8.10;87.00
678;DHT22;321;48.814;9.132;2023-04-03T13:24:53;8.20;88.10
678;DHT22;321;48.814;9.132;2023-04-03T13:27:20;8.20;87.90
678;DHT22;321;48.814;9.132;2023-04-03T13:29:52;7.80;87.70
678;DHT22;321;48.814;9.132;2023-04-03T13:32:24;7.90;89.20
678;DHT22;321;48.814;9.132;2023-04-03T13:34:50;8.30;89.70
678;DHT22;321;48.814;9.132;2023-04-03T13:37:30;8.10;87.60
678;DHT22;321;48.814;9.132;2023-04-03T13:40:11;8.30;88.30
678;DHT22;321;48.814;9.132;2023-04-03T13:42:39;8.60;88.10
678;DHT22;321;48.814;9.132;2023-04-03T13:45:26;8.60;84.40
678;DHT22;321;48.814;9.132;2023-04-03T13:48:16;8.90;86.10
678;DHT22;321;48.814;9.132;2023-04-03T13:51:02;8.90;82.80
678;DHT22;321;48.814;9.132;2023-04-03T13:53:31;9.00;82.30
678;DHT22;321;48.814;9.132;2023-04-03T13:56:09;8.90;80.30
678;DHT22;321;48.814;9.132;2023-04-03T14:01:22;9.10;81.00
678;DHT22;321;48.814;9.132;2023-04-03T14:06:47;9.40;79.20
678;DHT22;321;48.814;9.132;2023-04-03T14:09:14;9.00;77.00
678;DHT22;321;48.814;9.132;2023-04-03T14:11:41;8.90;79.00
678;DHT22;321;48.814;9.132;2023-04-03T14:14:14;9.10;80.30
678;DHT22;321;48.814;9.132;2023-04-03T14:16:43;9.10;81.00
678;DHT22;321;48.814;9.132;2023-04-03T14:19:18;8.90;82.30
678;DHT22;321;48.814;9.132;2023-04-03T14:21:44;9.20;82.00
678;DHT22;321;48.814;9.132;2023-04-03T14:24:10;9.30;81.20
678;DHT22;321;48.814;9.132;2023-04-03T14:26:37;9.30;81.40
678;DHT22;321;48.814;9.132;2023-04-03T14:29:02;9.40;80.00
678;DHT22;321;48.814;9.132;2023-04-03T14:31:28;9.00;79.20
678;DHT22;321;48.814;9.132;2023-04-03T14:33:54;8.70;78.70
678;DHT22;321;48.814;9.132;2023-04-03T14:36:21;8.30;76.00
678;DHT22;321;48.814;9.132;2023-04-03T14:38:49;8.40;78.30
678;DHT22;321;48.814;9.132;2023-04-03T14:41:17;8.70;77.00
678;DHT22;321;48.814;9.132;2023-04-03T14:43:44;8.90;78.70
678;DHT22;321;48.814;9.132;2023-04-03T14:48:44;9.00;77.80
678;DHT22;321;48.814;9.132;2023-04-03T14:51:13;9.30;78.90
678;DHT22;321;48.814;9.132;2023-04-03T14:53:40;9.10;75.80
678;DHT22;321;48.814;9.132;2023-04-03T14:56:18;9.00;76.70
678;DHT22;321;48.814;9.132;2023-04-03T14:58:44;9.30;77.70
678;DHT22;321;48.814;9.132;2023-04-03T15:01:13;9.40;78.30
678;DHT22;321;48.814;9.132;2023-04-03T15:03:39;8.70;76.50
678;DHT22;321;48.814;9.132;2023-04-03T15:06:05;9.00;78.70
678;DHT22;321;48.814;9.132;2023-04-03T15:08:31;8.80;76.40
678;DHT22;321;48.814;9.132;2023-04-03T15:10:57;9.00;77.60
678;DHT22;321;48.814;9.132;2023-04-03T15:13:24;8.90;78.80
678;DHT22;321;48.814;9.132;2023-04-03T15:15:50;9.00;78.80
678;DHT22;321;48.814;9.132;2023-04-03T15:18:19;9.10;76.30
678;DHT22;321;48.814;9.132;2023-04-03T15:20:46;8.50;74.10
678;DHT22;321;48.814;9.132;2023-04-03T15:23:13;8.60;76.90
678;DHT22;321;48.814;9.132;2023-04-03T15:25:44;8.70;76.90
678;DHT22;321;48.814;9.132;2023-04-03T15:28:19;8.60;77.30
678;DHT22;321;48.814;9.132;2023-04-03T15:30:46;8.80;77.60
678;DHT22;321;48.814;9.132;2023-04-03T15:33:11;8.50;76.60
678;DHT22;321;48.814;9.132;2023-04-03T15:35:37;8.50;78.50
678;DHT22;321;48.814;9.132;2023-04-03T15:38:03;8.20;76.50
678;DHT22;321;48.814;9.132;2023-04-03T15:40:28;7.90;77.60
678;DHT22;321;48.814;9.132;2023-04-03T15:42:54;7.70;79.70
678;DHT22;321;48.814;9.132;2023-04-03T15:45:19;7.50;78.60
678;DHT22;321;48.814;9.132;2023-04-03T15:47:46;7.40;79.10
678;DHT22;321;48.814;9.132;2023-04-03T15:50:12;7.60;80.40
678;DHT22;321;48.814;9.132;2023-04-03T15:52:37;7.30;78.20
678;DHT22;321;48.814;9.132;2023-04-03T15:55:03;7.20;78.70
678;DHT22;321;48.814;9.132;2023-04-03T15:57:29;7.30;77.90
678;DHT22;321;48.814;9.132;2023-04-03T15:59:55;7.30;77.80
678;DHT22;321;48.814;9.132;2023-04-03T16:02:21;7.30;76.50
678;DHT22;321;48.814;9.132;2023-04-03T16:04:47;7.50;77.80
678;DHT22;321;48.814;9.132;2023-04-03T16:07:13;7.40;76.00
678;DHT22;321;48.814;9.132;2023-04-03T16:09:38;7.50;77.20
678;DHT22;321;48.814;9.132;2023-04-03T16:12:04;7.30;76.80
678;DHT22;321;48.814;9.132;2023-04-03T16:14:30;7.50;78.20
678;DHT22;321;48.814;9.132;2023-04-03T16:16:56;7.60;78.30
678;DHT22;321;48.814;9.132;2023-04-03T16:19:22;7.80;80.20
678;DHT22;321;48.814;9.132;2023-04-03T16:21:48;7.80;78.80
678;DHT22;321;48.814;9.132;2023-04-03T16:24:14;7.80;78.50
678;DHT22;321;48.814;9.132;2023-04-03T16:26:40;7.60;78.20
678;DHT22;321;48.814;9.132;2023-04-03T16:29:05;7.50;79.50
678;DHT22;321;48.814;9.132;2023-04-03T16:31:32;7.40;79.50
678;DHT22;321;48.814;9.132;2023-04-03T16:33:58;7.20;79.70
678;DHT22;321;48.814;9.132;2023-04-03T16:36:25;7.20;79.10
678;DHT22;321;48.814;9.132;2023-04-03T16:38:51;7.10;79.60
678;DHT22;321;48.814;9.132;2023-04-03T16:41:16;7.20;80.50
678;DHT22;321;48.814;9.132;2023-04-03T16:43:42;7.30;79.80
678;DHT22;321;48.814;9.132;2023-04-03T16:46:08;7.50;80.60
678;DHT22;321;48.814;9.132;2023-04-03T16:48:33;7.60;80.10
678;DHT22;321;48.814;9.132;2023-04-03T16:50:59;7.50;81.20
678;DHT22;321;48.814;9.132;2023-04-03T16:53:26;7.50;79.10
678;DHT22;321;48.814;9.132;2023-04-03T16:55:52;7.60;80.70
678;DHT22;321;48.814;9.132;2023-04-03T16:58:18;7.80;81.00
678;DHT22;321;48.814;9.132;2023-04-03T17:00:43;7.90;80.00
678;DHT22;321;48.814;9.132;2023-04-03T17:03:09;7.60;77.30
678;DHT22;321;48.814;9.132;2023-04-03T17:05:35;7.60;78.20
678;DHT22;321;48.814;9.132;2023-04-03T17:08:00;7.40;77.10
678;DHT22;321;48.814;9.132;2023-04-03T17:10:27;7.40;79.80
678;DHT22;321;48.814;9.132;2023-04-03T17:12:53;7.20;77.10
678;DHT22;321;48.814;9.132;2023-04-03T17:15:19;7.00;77.90
678;DHT22;321;48.814;9.132;2023-04-03T17:17:46;7.10;79.30
678;DHT22;321;48.814;9.132;2023-04-03T17:20:11;7.20;80.00
678;DHT22;321;48.814;9.132;2023-04-03T17:22:37;7.50;79.60
678;DHT22;321;48.814;9.132;2023-04-03T17:25:04;7.40;78.80
678;DHT22;321;48.814;9.132;2023-04-03T17:27:30;7.50;79.60
678;DHT22;321;48.814;9.132;2023-04-03T17:29:55;7.60;80.00
678;DHT22;321;48.814;9.132;2023-04-03T17:32:21;7.50;78.80
678;DHT22;321;48.814;9.132;2023-04-03T17:34:47;7.50;79.60
678;DHT22;321;48.814;9.132;2023-04-03T17:37:13;7.30;79.20
678;DHT22;321;48.814;9.132;2023-04-03T17:39:38;7.10;79.20
678;DHT22;321;48.814;9.132;2023-04-03T17:42:04;6.90;79.60
678;DHT22;321;48.814;9.132;2023-04-03T17:44:30;6.90;81.40
678;DHT22;321;48.814;9.132;2023-04-03T17:46:55;6.80;80.30
678;DHT22;321;48.814;9.132;2023-04-03T17:49:21;6.90;82.10
678;DHT22;321;48.814;9.132;2023-04-03T17:51:47;6.80;82.20
678;DHT22;321;48.814;9.132;2023-04-03T17:54:12;6.80;81.10
678;DHT22;321;48.814;9.132;2023-04-03T17:56:38;6.80;83.20
678;DHT22;321;48.814;9.132;2023-04-03T17:59:04;6.90;82.50
678;DHT22;321;48.814;9.132;2023-04-03T18:01:31;7.00;82.50
678;DHT22;321;48.814;9.132;2023-04-03T18:04:00;6.80;81.10
678;DHT22;321;48.814;9.132;2023-04-03T18:06:29;6.70;82.80
678;DHT22;321;48.814;9.132;2023-04-03T18:09:03;6.70;83.30
678;DHT22;321;48.814;9.132;2023-04-03T18:11:29;6.50;84.90
678;DHT22;321;48.814;9.132;2023-04-03T18:13:58;6.50;84.50
678;DHT22;321;48.814;9.132;2023-04-03T18:16:24;6.70;85.60
678;DHT22;321;48.814;9.132;2023-04-03T18:18:50;6.50;82.10
678;DHT22;321;48.814;9.132;2023-04-03T18:21:16;6.60;86.10
678;DHT22;321;48.814;9.132;2023-04-03T18:23:46;6.60;84.70
678;DHT22;321;48.814;9.132;2023-04-03T18:26:13;6.60;84.60
678;DHT22;321;48.814;9.132;2023-04-03T18:28:41;6.60;84.60
678;DHT22;321;48.814;9.132;2023-04-03T18:31:08;6.50;82.30
678;DHT22;321;48.814;9.132;2023-04-03T18:33:36;6.60;83.70
678;DHT22;321;48.814;9.132;2023-04-03T18:36:03;6.70;81.90